sensor_id;sensor_type;location;lat;lon;timestamp;pressure;altitude;pressure_sealevel;temperature;humidity
70254;BME280;57649;42.968;1.608;2023-01-29T00:01:27;98109.31;;;0.91;91.03
70254;BME280;57649;42.968;1.608;2023-01-29T00:03:52;98085.47;;;0.78;92.17
70254;BME280;57649;42.968;1.608;2023-01-29T00:06:18;98104.59;;;0.82;92.77
70254;BME280;57649;42.968;1.608;2023-01-29T00:08:43;98112.78;;;0.77;92.74
70254;BME280;57649;42.968;1.608;2023-01-29T00:11:09;98103.63;;;0.68;92.83
70254;BME280;57649;42.968;1.608;2023-01-29T00:13:35;98113.13;;;0.71;93.68
70254;BME280;57649;42.968;1.608;2023-01-29T00:16:01;98108.59;;;0.73;93.97
70254;BME280;57649;42.968;1.608;2023-01-29T00:18:27;98104.97;;;0.75;93.72
70254;BME280;57649;42.968;1.608;2023-01-29T00:20:54;98110.13;;;0.77;93.61
70254;BME280;57649;42.968;1.608;2023-01-29T00:23:19;98112.91;;;0.60;93.81
70254;BME280;57649;42.968;1.608;2023-01-29T00:25:45;98093.69;;;0.57;93.82
70254;BME280;57649;42.968;1.608;2023-01-29T00:28:11;98100.84;;;0.55;94.18
70254;BME280;57649;42.968;1.608;2023-01-29T00:30:37;98098.53;;;0.49;93.96
70254;BME280;57649;42.968;1.608;2023-01-29T00:33:03;98087.31;;;0.46;94.39
70254;BME280;57649;42.968;1.608;2023-01-29T00:35:30;98094.97;;;0.50;95.30
70254;BME280;57649;42.968;1.608;2023-01-29T00:37:56;98099.72;;;0.60;95.71
70254;BME280;57649;42.968;1.608;2023-01-29T00:40:22;98086.31;;;0.48;95.40
70254;BME280;57649;42.968;1.608;2023-01-29T00:42:48;98084.97;;;0.41;95.02
70254;BME280;57649;42.968;1.608;2023-01-29T00:45:33;98086.44;;;0.31;95.13
70254;BME280;57649;42.968;1.608;2023-01-29T00:48:01;98080.63;;;0.40;98.27
70254;BME280;57649;42.968;1.608;2023-01-29T00:50:27;98074.81;;;0.35;96.00
70254;BME280;57649;42.968;1.608;2023-01-29T00:52:53;98076.47;;;0.36;96.60
70254;BME280;57649;42.968;1.608;2023-01-29T00:55:18;98079.94;;;0.36;95.85
70254;BME280;57649;42.968;1.608;2023-01-29T00:57:44;98080.06;;;0.35;96.45
70254;BME280;57649;42.968;1.608;2023-01-29T01:00:13;98074.97;;;0.32;96.51
70254;BME280;57649;42.968;1.608;2023-01-29T01:02:38;98068.19;;;0.28;96.52
70254;BME280;57649;42.968;1.608;2023-01-29T01:05:23;98067.75;;;0.35;97.86
70254;BME280;57649;42.968;1.608;2023-01-29T01:07:50;98073.59;;;0.41;96.53
70254;BME280;57649;42.968;1.608;2023-01-29T01:10:22;98065.44;;;0.29;97.03
70254;BME280;57649;42.968;1.608;2023-01-29T01:13:05;98062.91;;;0.28;96.18
70254;BME280;57649;42.968;1.608;2023-01-29T01:15:34;98069.09;;;0.43;95.58
70254;BME280;57649;42.968;1.608;2023-01-29T01:18:01;98069.53;;;0.35;95.68
70254;BME280;57649;42.968;1.608;2023-01-29T01:20:29;98071.56;;;0.30;96.75
70254;BME280;57649;42.968;1.608;2023-01-29T01:22:55;98081.06;;;0.32;96.18
70254;BME280;57649;42.968;1.608;2023-01-29T01:25:22;98072.72;;;0.40;95.48
70254;BME280;57649;42.968;1.608;2023-01-29T01:27:54;98071.63;;;0.44;96.74
70254;BME280;57649;42.968;1.608;2023-01-29T01:30:20;98078.94;;;0.39;97.48
70254;BME280;57649;42.968;1.608;2023-01-29T01:32:47;98080.28;;;0.46;96.95
70254;BME280;57649;42.968;1.608;2023-01-29T01:35:12;98073.53;;;0.56;97.55
70254;BME280;57649;42.968;1.608;2023-01-29T01:37:39;98069.09;;;0.43;98.17
70254;BME280;57649;42.968;1.608;2023-01-29T01:40:11;98075.94;;;0.45;97.44
70254;BME280;57649;42.968;1.608;2023-01-29T01:42:52;98077.00;;;0.43;98.70
70254;BME280;57649;42.968;1.608;2023-01-29T01:45:34;98066.38;;;0.44;99.48
70254;BME280;57649;42.968;1.608;2023-01-29T01:48:10;98067.97;;;0.47;98.12
70254;BME280;57649;42.968;1.608;2023-01-29T01:50:57;98067.22;;;0.45;97.68
70254;BME280;57649;42.968;1.608;2023-01-29T01:53:36;98067.03;;;0.48;95.76
70254;BME280;57649;42.968;1.608;2023-01-29T01:56:09;98068.47;;;0.53;96.71
70254;BME280;57649;42.968;1.608;2023-01-29T01:58:40;98068.81;;;0.47;97.65
70254;BME280;57649;42.968;1.608;2023-01-29T02:01:07;98061.50;;;0.36;98.63
70254;BME280;57649;42.968;1.608;2023-01-29T02:03:49;98076.72;;;0.47;99.52
70254;BME280;57649;42.968;1.608;2023-01-29T02:06:39;98064.88;;;0.54;96.21
70254;BME280;57649;42.968;1.608;2023-01-29T02:10:01;98073.38;;;0.60;97.00
70254;BME280;57649;42.968;1.608;2023-01-29T02:12:30;98063.00;;;0.56;98.16
70254;BME280;57649;42.968;1.608;2023-01-29T02:14:56;98064.53;;;0.61;95.75
70254;BME280;57649;42.968;1.608;2023-01-29T02:17:22;98069.59;;;0.64;96.84
70254;BME280;57649;42.968;1.608;2023-01-29T02:30:27;98067.06;;;0.62;96.49
70254;BME280;57649;42.968;1.608;2023-01-29T02:35:34;98066.44;;;0.73;97.00
70254;BME280;57649;42.968;1.608;2023-01-29T02:38:11;98066.22;;;0.62;96.07
70254;BME280;57649;42.968;1.608;2023-01-29T02:40:57;98075.59;;;0.82;96.43
70254;BME280;57649;42.968;1.608;2023-01-29T02:43:54;98079.69;;;0.71;95.73
70254;BME280;57649;42.968;1.608;2023-01-29T02:46:31;98078.84;;;0.71;97.31
70254;BME280;57649;42.968;1.608;2023-01-29T02:51:33;98076.38;;;0.68;95.63
70254;BME280;57649;42.968;1.608;2023-01-29T02:54:16;98072.69;;;0.56;94.49
70254;BME280;57649;42.968;1.608;2023-01-29T02:57:03;98079.81;;;0.70;95.67
70254;BME280;57649;42.968;1.608;2023-01-29T02:59:36;98071.41;;;0.63;96.84
70254;BME280;57649;42.968;1.608;2023-01-29T03:02:11;98070.47;;;0.64;98.72
70254;BME280;57649;42.968;1.608;2023-01-29T03:04:50;98066.72;;;0.68;98.56
70254;BME280;57649;42.968;1.608;2023-01-29T03:07:22;98077.72;;;0.75;98.24
70254;BME280;57649;42.968;1.608;2023-01-29T03:10:46;98074.53;;;0.70;98.36
70254;BME280;57649;42.968;1.608;2023-01-29T03:13:24;98073.66;;;0.69;99.66
70254;BME280;57649;42.968;1.608;2023-01-29T03:16:00;98078.47;;;0.63;100.00
70254;BME280;57649;42.968;1.608;2023-01-29T03:18:31;98078.69;;;0.74;99.64
70254;BME280;57649;42.968;1.608;2023-01-29T03:21:03;98076.06;;;0.74;99.56
70254;BME280;57649;42.968;1.608;2023-01-29T03:23:52;98089.41;;;0.71;99.92
70254;BME280;57649;42.968;1.608;2023-01-29T03:26:38;98082.03;;;0.62;100.00
70254;BME280;57649;42.968;1.608;2023-01-29T03:29:24;98092.84;;;0.57;100.00
70254;BME280;57649;42.968;1.608;2023-01-29T03:32:09;98093.09;;;0.52;100.00
70254;BME280;57649;42.968;1.608;2023-01-29T03:34:42;98096.25;;;0.59;100.00
70254;BME280;57649;42.968;1.608;2023-01-29T03:39:39;98104.31;;;0.56;100.00
70254;BME280;57649;42.968;1.608;2023-01-29T03:57:59;98118.91;;;0.62;100.00
70254;BME280;57649;42.968;1.608;2023-01-29T04:00:37;98118.53;;;0.53;100.00
70254;BME280;57649;42.968;1.608;2023-01-29T04:05:42;98114.84;;;0.56;100.00
70254;BME280;57649;42.968;1.608;2023-01-29T04:08:13;98113.44;;;0.50;100.00
70254;BME280;57649;42.968;1.608;2023-01-29T04:10:42;98125.56;;;0.53;99.43
70254;BME280;57649;42.968;1.608;2023-01-29T04:13:10;98127.44;;;0.51;99.82
70254;BME280;57649;42.968;1.608;2023-01-29T04:15:45;98132.31;;;0.43;100.00
70254;BME280;57649;42.968;1.608;2023-01-29T04:18:12;98130.16;;;0.49;100.00
70254;BME280;57649;42.968;1.608;2023-01-29T04:20:37;98129.22;;;0.50;100.00
70254;BME280;57649;42.968;1.608;2023-01-29T04:23:16;98129.91;;;0.38;100.00
70254;BME280;57649;42.968;1.608;2023-01-29T04:25:44;98124.56;;;0.40;100.00
70254;BME280;57649;42.968;1.608;2023-01-29T04:28:18;98126.97;;;0.44;100.00
70254;BME280;57649;42.968;1.608;2023-01-29T04:30:50;98126.00;;;0.45;99.88
70254;BME280;57649;42.968;1.608;2023-01-29T04:33:28;98131.88;;;0.50;100.00
70254;BME280;57649;42.968;1.608;2023-01-29T04:41:51;98134.22;;;0.55;99.49
70254;BME280;57649;42.968;1.608;2023-01-29T04:44:31;98140.97;;;0.61;99.68
70254;BME280;57649;42.968;1.608;2023-01-29T04:49:45;98134.56;;;0.65;100.00
70254;BME280;57649;42.968;1.608;2023-01-29T04:55:09;98142.13;;;0.55;100.00
70254;BME280;57649;42.968;1.608;2023-01-29T04:58:01;98135.63;;;0.46;100.00
70254;BME280;57649;42.968;1.608;2023-01-29T05:00:41;98138.25;;;0.46;100.00
70254;BME280;57649;42.968;1.608;2023-01-29T05:03:07;98137.50;;;0.44;100.00
70254;BME280;57649;42.968;1.608;2023-01-29T05:05:38;98133.91;;;0.45;100.00
70254;BME280;57649;42.968;1.608;2023-01-29T05:08:05;98138.94;;;0.50;100.00
70254;BME280;57649;42.968;1.608;2023-01-29T05:10:32;98144.69;;;0.56;100.00
70254;BME280;57649;42.968;1.608;2023-01-29T05:13:00;98142.56;;;0.63;100.00
70254;BME280;57649;42.968;1.608;2023-01-29T05:15:36;98134.47;;;0.66;100.00
70254;BME280;57649;42.968;1.608;2023-01-29T05:18:03;98137.38;;;0.62;100.00
70254;BME280;57649;42.968;1.608;2023-01-29T05:20:35;98144.91;;;0.68;100.00
70254;BME280;57649;42.968;1.608;2023-01-29T05:23:02;98143.06;;;0.70;100.00
70254;BME280;57649;42.968;1.608;2023-01-29T05:25:29;98144.56;;;0.74;100.00
70254;BME280;57649;42.968;1.608;2023-01-29T05:27:55;98146.25;;;0.75;100.00
70254;BME280;57649;42.968;1.608;2023-01-29T05:30:33;98155.28;;;0.71;100.00
70254;BME280;57649;42.968;1.608;2023-01-29T05:32:59;98152.16;;;0.64;100.00
70254;BME280;57649;42.968;1.608;2023-01-29T05:35:24;98153.34;;;0.58;100.00
70254;BME280;57649;42.968;1.608;2023-01-29T05:37:50;98150.38;;;0.65;100.00
70254;BME280;57649;42.968;1.608;2023-01-29T05:40:16;98147.66;;;0.66;100.00
70254;BME280;57649;42.968;1.608;2023-01-29T05:42:41;98167.88;;;0.66;100.00
70254;BME280;57649;42.968;1.608;2023-01-29T05:45:07;98159.47;;;0.59;100.00
70254;BME280;57649;42.968;1.608;2023-01-29T05:47:33;98160.94;;;0.49;100.00
70254;BME280;57649;42.968;1.608;2023-01-29T05:49:58;98159.31;;;0.46;100.00
70254;BME280;57649;42.968;1.608;2023-01-29T05:52:24;98166.88;;;0.52;100.00
70254;BME280;57649;42.968;1.608;2023-01-29T05:54:49;98171.22;;;0.53;100.00
70254;BME280;57649;42.968;1.608;2023-01-29T05:57:14;98167.31;;;0.45;100.00
70254;BME280;57649;42.968;1.608;2023-01-29T05:59:40;98174.19;;;0.47;100.00
70254;BME280;57649;42.968;1.608;2023-01-29T06:02:05;98176.91;;;0.46;100.00
70254;BME280;57649;42.968;1.608;2023-01-29T06:04:31;98179.66;;;0.44;100.00
70254;BME280;57649;42.968;1.608;2023-01-29T06:06:56;98182.34;;;0.43;100.00
70254;BME280;57649;42.968;1.608;2023-01-29T06:09:22;98193.56;;;0.46;100.00
70254;BME280;57649;42.968;1.608;2023-01-29T06:11:47;98181.31;;;0.45;100.00
70254;BME280;57649;42.968;1.608;2023-01-29T06:14:13;98183.63;;;0.51;100.00
70254;BME280;57649;42.968;1.608;2023-01-29T06:16:38;98187.94;;;0.52;100.00
70254;BME280;57649;42.968;1.608;2023-01-29T06:19:04;98190.66;;;0.51;100.00
70254;BME280;57649;42.968;1.608;2023-01-29T06:21:29;98205.28;;;0.56;100.00
70254;BME280;57649;42.968;1.608;2023-01-29T06:23:55;98201.28;;;0.49;100.00
70254;BME280;57649;42.968;1.608;2023-01-29T06:26:20;98199.31;;;0.53;100.00
70254;BME280;57649;42.968;1.608;2023-01-29T06:28:49;98213.94;;;0.58;100.00
70254;BME280;57649;42.968;1.608;2023-01-29T06:31:14;98202.66;;;0.56;100.00
70254;BME280;57649;42.968;1.608;2023-01-29T06:33:40;98211.22;;;0.60;100.00
70254;BME280;57649;42.968;1.608;2023-01-29T06:36:06;98200.19;;;0.53;100.00
70254;BME280;57649;42.968;1.608;2023-01-29T06:38:32;98208.50;;;0.62;100.00
70254;BME280;57649;42.968;1.608;2023-01-29T06:40:57;98208.50;;;0.62;100.00
70254;BME280;57649;42.968;1.608;2023-01-29T06:43:23;98217.69;;;0.54;100.00
70254;BME280;57649;42.968;1.608;2023-01-29T06:45:54;98207.00;;;0.57;100.00
70254;BME280;57649;42.968;1.608;2023-01-29T06:48:20;98218.66;;;0.53;100.00
70254;BME280;57649;42.968;1.608;2023-01-29T06:50:46;98221.34;;;0.52;100.00
70254;BME280;57649;42.968;1.608;2023-01-29T06:53:14;98221.59;;;0.47;100.00
70254;BME280;57649;42.968;1.608;2023-01-29T06:55:39;98222.38;;;0.49;100.00
70254;BME280;57649;42.968;1.608;2023-01-29T06:58:06;98211.75;;;0.51;100.00
70254;BME280;57649;42.968;1.608;2023-01-29T07:00:32;98216.78;;;0.55;100.00
70254;BME280;57649;42.968;1.608;2023-01-29T07:02:57;98211.06;;;0.47;100.00
70254;BME280;57649;42.968;1.608;2023-01-29T07:05:23;98212.69;;;0.50;100.00
70254;BME280;57649;42.968;1.608;2023-01-29T07:07:48;98209.47;;;0.45;100.00
70254;BME280;57649;42.968;1.608;2023-01-29T07:10:14;98220.69;;;0.48;100.00
70254;BME280;57649;42.968;1.608;2023-01-29T07:12:39;98216.16;;;0.50;100.00
70254;BME280;57649;42.968;1.608;2023-01-29T07:15:05;98225.88;;;0.50;100.00
70254;BME280;57649;42.968;1.608;2023-01-29T07:17:31;98224.69;;;0.55;100.00
70254;BME280;57649;42.968;1.608;2023-01-29T07:19:56;98220.06;;;0.43;100.00
70254;BME280;57649;42.968;1.608;2023-01-29T07:22:21;98217.22;;;0.48;100.00
70254;BME280;57649;42.968;1.608;2023-01-29T07:24:47;98230.94;;;0.53;100.00
70254;BME280;57649;42.968;1.608;2023-01-29T07:27:12;98227.31;;;0.55;100.00
70254;BME280;57649;42.968;1.608;2023-01-29T07:29:38;98234.34;;;0.55;100.00
70254;BME280;57649;42.968;1.608;2023-01-29T07:32:04;98228.41;;;0.51;100.00
70254;BME280;57649;42.968;1.608;2023-01-29T07:34:29;98232.50;;;0.41;100.00
70254;BME280;57649;42.968;1.608;2023-01-29T07:36:57;98233.69;;;0.35;100.00
70254;BME280;57649;42.968;1.608;2023-01-29T07:39:23;98242.50;;;0.34;100.00
70254;BME280;57649;42.968;1.608;2023-01-29T07:41:48;98238.00;;;0.36;100.00
70254;BME280;57649;42.968;1.608;2023-01-29T07:44:13;98242.41;;;0.36;100.00
70254;BME280;57649;42.968;1.608;2023-01-29T07:46:39;98247.53;;;0.39;100.00
70254;BME280;57649;42.968;1.608;2023-01-29T07:49:04;98252.34;;;0.31;100.00
70254;BME280;57649;42.968;1.608;2023-01-29T07:51:30;98248.72;;;0.33;100.00
70254;BME280;57649;42.968;1.608;2023-01-29T07:53:55;98255.59;;;0.36;100.00
70254;BME280;57649;42.968;1.608;2023-01-29T07:56:20;98263.56;;;0.34;100.00
70254;BME280;57649;42.968;1.608;2023-01-29T07:58:46;98266.47;;;0.30;100.00
70254;BME280;57649;42.968;1.608;2023-01-29T08:01:11;98267.06;;;0.35;100.00
70254;BME280;57649;42.968;1.608;2023-01-29T08:03:37;98274.09;;;0.34;100.00
70254;BME280;57649;42.968;1.608;2023-01-29T08:06:03;98278.78;;;0.45;100.00
70254;BME280;57649;42.968;1.608;2023-01-29T08:08:29;98279.31;;;0.52;100.00
70254;BME280;57649;42.968;1.608;2023-01-29T08:10:54;98277.44;;;0.54;100.00
70254;BME280;57649;42.968;1.608;2023-01-29T08:13:20;98282.81;;;0.52;100.00
70254;BME280;57649;42.968;1.608;2023-01-29T08:15:45;98282.38;;;0.60;100.00
70254;BME280;57649;42.968;1.608;2023-01-29T08:18:12;98284.81;;;0.47;100.00
70254;BME280;57649;42.968;1.608;2023-01-29T08:20:37;98285.69;;;0.64;100.00
70254;BME280;57649;42.968;1.608;2023-01-29T08:23:06;98290.38;;;0.74;100.00
70254;BME280;57649;42.968;1.608;2023-01-29T08:25:33;98288.78;;;0.72;100.00
70254;BME280;57649;42.968;1.608;2023-01-29T08:27:59;98296.41;;;0.76;100.00
70254;BME280;57649;42.968;1.608;2023-01-29T08:30:30;98291.22;;;0.75;100.00
70254;BME280;57649;42.968;1.608;2023-01-29T08:32:55;98298.38;;;0.89;100.00
70254;BME280;57649;42.968;1.608;2023-01-29T08:35:21;98296.25;;;0.95;100.00
70254;BME280;57649;42.968;1.608;2023-01-29T08:37:58;98297.59;;;0.87;100.00
70254;BME280;57649;42.968;1.608;2023-01-29T08:40:28;98301.16;;;0.86;100.00
70254;BME280;57649;42.968;1.608;2023-01-29T08:43:03;98304.69;;;0.86;100.00
70254;BME280;57649;42.968;1.608;2023-01-29T08:45:29;98306.03;;;0.93;100.00
70254;BME280;57649;42.968;1.608;2023-01-29T08:47:56;98302.97;;;0.85;100.00
70254;BME280;57649;42.968;1.608;2023-01-29T08:50:21;98305.25;;;0.91;100.00
70254;BME280;57649;42.968;1.608;2023-01-29T08:52:47;98306.78;;;0.95;100.00
70254;BME280;57649;42.968;1.608;2023-01-29T08:55:12;98309.84;;;1.04;100.00
70254;BME280;57649;42.968;1.608;2023-01-29T08:57:38;98302.53;;;1.09;100.00
70254;BME280;57649;42.968;1.608;2023-01-29T09:00:07;98308.78;;;1.22;100.00
70254;BME280;57649;42.968;1.608;2023-01-29T09:02:33;98309.47;;;1.10;100.00
70254;BME280;57649;42.968;1.608;2023-01-29T09:04:59;98309.16;;;1.00;99.63
70254;BME280;57649;42.968;1.608;2023-01-29T09:07:24;98304.41;;;1.07;99.56
70254;BME280;57649;42.968;1.608;2023-01-29T09:09:50;98312.03;;;1.27;100.00
70254;BME280;57649;42.968;1.608;2023-01-29T09:12:15;98311.44;;;1.22;100.00
70254;BME280;57649;42.968;1.608;2023-01-29T09:14:41;98314.75;;;1.26;98.20
70254;BME280;57649;42.968;1.608;2023-01-29T09:17:06;98325.56;;;1.21;100.00
70254;BME280;57649;42.968;1.608;2023-01-29T09:19:31;98315.94;;;1.20;100.00
70254;BME280;57649;42.968;1.608;2023-01-29T09:21:57;98321.53;;;1.30;100.00
70254;BME280;57649;42.968;1.608;2023-01-29T09:24:22;98318.06;;;1.29;100.00
70254;BME280;57649;42.968;1.608;2023-01-29T09:26:48;98325.44;;;1.39;99.56
70254;BME280;57649;42.968;1.608;2023-01-29T09:29:13;98320.84;;;1.42;97.03
70254;BME280;57649;42.968;1.608;2023-01-29T09:31:38;98320.84;;;1.42;96.47
70254;BME280;57649;42.968;1.608;2023-01-29T09:34:04;98317.53;;;1.39;98.46
70254;BME280;57649;42.968;1.608;2023-01-29T09:36:29;98316.47;;;1.57;97.53
70254;BME280;57649;42.968;1.608;2023-01-29T09:38:55;98310.47;;;1.69;99.78
70254;BME280;57649;42.968;1.608;2023-01-29T09:41:43;98310.38;;;1.71;96.46
70254;BME280;57649;42.968;1.608;2023-01-29T09:46:46;98308.06;;;1.95;96.04
70254;BME280;57649;42.968;1.608;2023-01-29T09:49:23;98307.69;;;2.01;95.61
70254;BME280;57649;42.968;1.608;2023-01-29T09:51:55;98309.59;;;2.14;94.58
70254;BME280;57649;42.968;1.608;2023-01-29T09:54:33;98311.22;;;2.02;95.71
70254;BME280;57649;42.968;1.608;2023-01-29T09:57:00;98322.53;;;2.04;93.39
70254;BME280;57649;42.968;1.608;2023-01-29T09:59:28;98317.31;;;1.88;91.51
70254;BME280;57649;42.968;1.608;2023-01-29T10:08:25;98311.50;;;2.26;96.19
70254;BME280;57649;42.968;1.608;2023-01-29T10:13:51;98303.75;;;2.23;97.52
70254;BME280;57649;42.968;1.608;2023-01-29T10:16:54;98303.75;;;2.23;94.75
70254;BME280;57649;42.968;1.608;2023-01-29T10:19:47;98305.19;;;2.28;92.47
70254;BME280;57649;42.968;1.608;2023-01-29T10:25:14;98297.63;;;2.37;90.47
70254;BME280;57649;42.968;1.608;2023-01-29T10:27:46;98295.19;;;2.48;92.98
70254;BME280;57649;42.968;1.608;2023-01-29T10:30:32;98295.91;;;2.64;90.81
70254;BME280;57649;42.968;1.608;2023-01-29T10:33:03;98298.66;;;2.63;89.86
70254;BME280;57649;42.968;1.608;2023-01-29T10:35:41;98292.53;;;2.62;91.52
70254;BME280;57649;42.968;1.608;2023-01-29T10:38:36;98282.78;;;2.77;89.87
70254;BME280;57649;42.968;1.608;2023-01-29T10:57:54;98261.22;;;3.51;85.43
70254;BME280;57649;42.968;1.608;2023-01-29T11:00:26;98256.84;;;3.37;81.32
70254;BME280;57649;42.968;1.608;2023-01-29T11:02:54;98261.06;;;3.66;85.57
70254;BME280;57649;42.968;1.608;2023-01-29T11:07:59;98252.78;;;3.71;86.99
70254;BME280;57649;42.968;1.608;2023-01-29T11:10:26;98255.56;;;3.82;85.18
70254;BME280;57649;42.968;1.608;2023-01-29T11:12:52;98264.09;;;3.60;84.02
70254;BME280;57649;42.968;1.608;2023-01-29T11:15:22;98255.41;;;3.58;84.05
70254;BME280;57649;42.968;1.608;2023-01-29T11:18:11;98257.66;;;3.64;86.04
70254;BME280;57649;42.968;1.608;2023-01-29T11:20:42;98260.50;;;3.61;84.80
70254;BME280;57649;42.968;1.608;2023-01-29T11:23:25;98239.34;;;3.61;86.87
70254;BME280;57649;42.968;1.608;2023-01-29T11:25:52;98247.31;;;3.34;85.28
70254;BME280;57649;42.968;1.608;2023-01-29T11:28:40;98247.31;;;3.34;86.83
70254;BME280;57649;42.968;1.608;2023-01-29T11:31:27;98237.88;;;3.17;83.96
70254;BME280;57649;42.968;1.608;2023-01-29T11:34:20;98237.78;;;3.19;84.52
70254;BME280;57649;42.968;1.608;2023-01-29T11:37:04;98227.38;;;3.16;84.10
70254;BME280;57649;42.968;1.608;2023-01-29T11:39:43;98229.69;;;3.20;82.13
70254;BME280;57649;42.968;1.608;2023-01-29T11:42:20;98231.84;;;3.15;82.16
70254;BME280;57649;42.968;1.608;2023-01-29T11:44:46;98231.59;;;3.18;81.19
70254;BME280;57649;42.968;1.608;2023-01-29T11:47:20;98235.50;;;3.13;79.34
70254;BME280;57649;42.968;1.608;2023-01-29T11:49:57;98228.78;;;2.94;77.10
70254;BME280;57649;42.968;1.608;2023-01-29T11:52:44;98216.63;;;2.92;79.40
70254;BME280;57649;42.968;1.608;2023-01-29T11:55:36;98219.97;;;2.81;80.49
70254;BME280;57649;42.968;1.608;2023-01-29T11:58:06;98220.97;;;2.78;79.25
70254;BME280;57649;42.968;1.608;2023-01-29T12:00:39;98214.75;;;2.79;79.17
70254;BME280;57649;42.968;1.608;2023-01-29T12:03:15;98210.22;;;2.81;79.33
70254;BME280;57649;42.968;1.608;2023-01-29T12:05:57;98214.16;;;2.88;78.79
70254;BME280;57649;42.968;1.608;2023-01-29T12:08:29;98220.94;;;2.93;82.22
70254;BME280;57649;42.968;1.608;2023-01-29T12:11:26;98215.47;;;2.96;81.36
70254;BME280;57649;42.968;1.608;2023-01-29T12:13:56;98210.97;;;2.83;78.41
70254;BME280;57649;42.968;1.608;2023-01-29T12:19:39;98201.69;;;2.91;79.21
70254;BME280;57649;42.968;1.608;2023-01-29T12:22:18;98193.00;;;2.88;78.21
70254;BME280;57649;42.968;1.608;2023-01-29T12:25:06;98203.84;;;3.11;79.84
70254;BME280;57649;42.968;1.608;2023-01-29T12:27:37;98203.25;;;3.20;84.08
70254;BME280;57649;42.968;1.608;2023-01-29T12:32:58;98192.28;;;3.26;81.91
70254;BME280;57649;42.968;1.608;2023-01-29T12:35:27;98191.22;;;3.55;81.98
70254;BME280;57649;42.968;1.608;2023-01-29T12:38:08;98180.75;;;3.53;81.06
70254;BME280;57649;42.968;1.608;2023-01-29T12:40:48;98190.50;;;3.65;80.48
70254;BME280;57649;42.968;1.608;2023-01-29T12:43:18;98191.44;;;3.64;81.07
70254;BME280;57649;42.968;1.608;2023-01-29T12:45:49;98181.28;;;3.58;80.26
70254;BME280;57649;42.968;1.608;2023-01-29T12:48:26;98184.91;;;3.83;80.55
70254;BME280;57649;42.968;1.608;2023-01-29T12:50:57;98180.75;;;3.79;77.66
70254;BME280;57649;42.968;1.608;2023-01-29T12:56:29;98183.41;;;3.92;73.61
70254;BME280;57649;42.968;1.608;2023-01-29T12:58:59;98186.59;;;3.58;74.74
70254;BME280;57649;42.968;1.608;2023-01-29T13:01:26;98187.66;;;3.56;75.29
70254;BME280;57649;42.968;1.608;2023-01-29T13:04:05;98196.72;;;3.39;76.39
70254;BME280;57649;42.968;1.608;2023-01-29T13:06:39;98189.31;;;3.44;77.00
70254;BME280;57649;42.968;1.608;2023-01-29T13:09:11;98193.75;;;3.31;77.41
70254;BME280;57649;42.968;1.608;2023-01-29T13:24:39;98195.91;;;3.11;78.86
70254;BME280;57649;42.968;1.608;2023-01-29T13:27:05;98194.41;;;2.94;79.10
70254;BME280;57649;42.968;1.608;2023-01-29T13:29:32;98186.56;;;2.93;80.60
70254;BME280;57649;42.968;1.608;2023-01-29T13:32:03;98197.88;;;2.95;81.12
70254;BME280;57649;42.968;1.608;2023-01-29T13:34:41;98193.19;;;2.85;81.18
70254;BME280;57649;42.968;1.608;2023-01-29T13:37:28;98195.88;;;2.98;81.92
70254;BME280;57649;42.968;1.608;2023-01-29T13:39:56;98187.91;;;2.85;82.27
70254;BME280;57649;42.968;1.608;2023-01-29T13:42:42;98192.91;;;2.90;83.80
70254;BME280;57649;42.968;1.608;2023-01-29T13:47:47;98204.22;;;2.92;84.49
70254;BME280;57649;42.968;1.608;2023-01-29T13:50:29;98203.78;;;2.85;82.70
70254;BME280;57649;42.968;1.608;2023-01-29T13:52:58;98200.84;;;2.90;84.15
70254;BME280;57649;42.968;1.608;2023-01-29T13:55:31;98201.69;;;2.91;83.93
70254;BME280;57649;42.968;1.608;2023-01-29T13:58:02;98209.66;;;2.76;82.82
70254;BME280;57649;42.968;1.608;2023-01-29T14:10:38;98207.56;;;2.81;84.21
70254;BME280;57649;42.968;1.608;2023-01-29T14:16:32;98206.69;;;2.68;82.69
70254;BME280;57649;42.968;1.608;2023-01-29T14:18:29;98213.19;;;2.77;83.97
70254;BME280;57649;42.968;1.608;2023-01-29T14:27:02;98220.75;;;2.68;79.52
70254;BME280;57649;42.968;1.608;2023-01-29T14:31:50;98222.00;;;2.63;79.49
70254;BME280;57649;42.968;1.608;2023-01-29T14:34:29;98212.16;;;2.65;79.81
70254;BME280;57649;42.968;1.608;2023-01-29T14:37:00;98218.19;;;2.67;80.39
70254;BME280;57649;42.968;1.608;2023-01-29T14:39:31;98230.09;;;2.60;81.68
70254;BME280;57649;42.968;1.608;2023-01-29T14:41:58;98222.47;;;2.55;80.60
70254;BME280;57649;42.968;1.608;2023-01-29T14:44:47;98221.41;;;2.72;80.75
70254;BME280;57649;42.968;1.608;2023-01-29T14:49:58;98228.41;;;2.59;79.58
70254;BME280;57649;42.968;1.608;2023-01-29T14:52:39;98221.72;;;2.67;80.65
70254;BME280;57649;42.968;1.608;2023-01-29T14:55:13;98224.22;;;2.69;79.53
70254;BME280;57649;42.968;1.608;2023-01-29T14:57:40;98213.00;;;2.65;81.85
70254;BME280;57649;42.968;1.608;2023-01-29T15:00:16;98219.44;;;2.88;81.96
70254;BME280;57649;42.968;1.608;2023-01-29T15:02:45;98228.72;;;2.81;82.15
70254;BME280;57649;42.968;1.608;2023-01-29T15:05:23;98222.69;;;2.79;80.93
70254;BME280;57649;42.968;1.608;2023-01-29T15:10:47;98229.25;;;2.59;79.40
70254;BME280;57649;42.968;1.608;2023-01-29T15:13:40;98226.34;;;2.64;83.08
70254;BME280;57649;42.968;1.608;2023-01-29T15:16:29;98222.16;;;2.60;81.78
70254;BME280;57649;42.968;1.608;2023-01-29T15:18:56;98217.34;;;2.66;83.20
70254;BME280;57649;42.968;1.608;2023-01-29T15:21:30;98221.59;;;2.69;81.50
70254;BME280;57649;42.968;1.608;2023-01-29T15:24:05;98228.03;;;2.65;81.23
70254;BME280;57649;42.968;1.608;2023-01-29T15:26:31;98230.09;;;2.60;82.71
70254;BME280;57649;42.968;1.608;2023-01-29T15:28:59;98227.56;;;2.58;81.30
70254;BME280;57649;42.968;1.608;2023-01-29T15:31:26;98226.94;;;2.55;82.62
70254;BME280;57649;42.968;1.608;2023-01-29T15:33:54;98228.19;;;2.62;83.03
70254;BME280;57649;42.968;1.608;2023-01-29T15:36:26;98232.00;;;2.58;82.63
70254;BME280;57649;42.968;1.608;2023-01-29T15:41:33;98223.88;;;2.61;83.57
70254;BME280;57649;42.968;1.608;2023-01-29T15:43:59;98228.75;;;2.67;84.73
70254;BME280;57649;42.968;1.608;2023-01-29T15:46:37;98225.25;;;2.81;82.46